• Join FlightAware (Why Join?)
  • Login
  • US Flag 
05:55AM EDT


 

Airport Tracker/Info


-or-


 

Live Flight TrackerFlight Track Log ✈ TAM3899 ✈ 27-Oct-2013 ✈ SBSR / SJP - SBSP / CGH

Flight Track Log - Related Links

Times and Time Zones

All times are in EDT time to prevent confusion due to time zone crossing. See the TAM3899 flight status page for this flight to view local times or setup timezone preferences in your user account.

Time Position Orientation Groundspeed Altitude Reporting Facility
EDT Latitude Longitude Course Direction KTS MPH feet Rate Location/Type
07:14PM -22.8068 -47.4744 138° Southeast  Level Estimated
07:15PM -22.8750 -47.4068 138° Southeast  Level Estimated
07:16PM -22.9432 -47.3391 138° Southeast  Level Estimated
07:17PM -23.0114 -47.2714 138° Southeast  Level Estimated
07:18PM -23.0795 -47.2035 138° Southeast  Level Estimated
07:19PM -23.1476 -47.1357 138° Southeast  Level Estimated
07:20PM -23.2157 -47.0677 137° Southeast  Level Estimated
07:21PM -23.2837 -46.9997 137° Southeast  Level Estimated
07:22PM -23.3518 -46.9316 137° Southeast  Level Estimated
07:23PM -23.4198 -46.8634 137° Southeast  Level Estimated
07:24PM -23.4877 -46.7952 137° Southeast  Level Estimated
07:25PM -23.5556 -46.7269 137° Southeast  Level Estimated
07:26PM -23.6235 -46.6586 137° Southeast  Level Estimated
07:27PM -23.6267 -46.6554 137° Southeast  Level Estimated
07:28PM -23.6267 -46.6554 114° Southeast  Level Estimated
07:29PM -23.6267 -46.6554 114° Southeast  Level Estimated
07:30PM -23.6267 -46.6554 114° Southeast  Level Estimated
07:31PM -23.6267 -46.6554 114° Southeast  Level Estimated
07:32PM -23.6267 -46.6554 114° Southeast  Level Estimated
07:33PM -23.6267 -46.6554 114° Southeast  Level Estimated
07:34PM -23.6267 -46.6554 114° Southeast  Level Estimated
07:35PM -23.6267 -46.6554 114° Southeast  Level Estimated
07:36PM -23.6267 -46.6554 114° Southeast  Level Estimated
07:37PM -23.6267 -46.6554 114° Southeast  Level Estimated
07:38PM -23.6267 -46.6554 114° Southeast  Level Estimated
07:39PM -23.6267 -46.6554 114° Southeast  Level Estimated
07:40PM -23.6267 -46.6554 114° Southeast  Level Estimated
07:41PM -23.6267 -46.6554 114° Southeast  Level Estimated
07:42PM -23.6267 -46.6554 114° Southeast  Level Estimated